Time;durP1;ratioP1;P1;durP2;ratioP2;P2;SDS_P1;SDS_P2;PMS_P1;PMS_P2;Temp;Humidity;BMP_temperature;BMP_pressure;BME280_temperature;BME280_humidity;BME280_pressure;Samples;Min_cycle;Max_cycle;Signal;HPM_P1;HPM_P2
2022/08/01 00:00:07;;;;;;;4.90;3.40;;;;;;;26.36;43.52;99797.29;117288;1183;23551;-58
2022/08/01 00:02:39;;;;;;;4.70;3.30;;;;;;;26.35;43.50;99795.55;117272;1183;22926;-63
2022/08/01 00:05:07;;;;;;;7.50;3.80;;;;;;;26.36;43.72;99796.73;117274;1181;21852;-63
2022/08/01 00:07:35;;;;;;;6.90;3.60;;;;;;;26.38;43.87;99799.05;117053;1186;22928;-63
2022/08/01 00:10:03;;;;;;;6.90;3.90;;;;;;;26.33;44.00;99797.66;117100;1182;23555;-58
2022/08/01 00:12:30;;;;;;;7.70;3.80;;;;;;;26.31;44.17;99796.78;117334;1186;22109;-64
2022/08/01 00:14:57;;;;;;;5.90;3.30;;;;;;;26.29;44.23;99801.80;117040;1183;24152;-63
2022/08/01 00:17:24;;;;;;;5.80;3.50;;;;;;;26.25;44.19;99803.80;116953;1187;22621;-63
2022/08/01 00:19:51;;;;;;;9.20;3.70;;;;;;;26.20;44.30;99801.88;117038;1188;21908;-60
2022/08/01 00:22:19;;;;;;;7.80;3.80;;;;;;;26.16;44.41;99799.35;117063;1186;23016;-58
2022/08/01 00:24:46;;;;;;;9.50;3.50;;;;;;;26.13;44.42;99793.28;117294;1185;23585;-63
2022/08/01 00:27:13;;;;;;;9.10;3.90;;;;;;;26.11;44.51;99793.65;117028;1186;21954;-58
2022/08/01 00:29:40;;;;;;;6.60;3.50;;;;;;;26.06;44.64;99791.73;116956;1183;23556;-63
2022/08/01 00:32:31;;;;;;;7.20;4.00;;;;;;;26.01;44.83;99792.75;117106;1186;21856;-63
2022/08/01 00:34:59;;;;;;;5.70;3.40;;;;;;;25.96;44.93;99794.77;117066;1186;21856;-63
2022/08/01 00:37:26;;;;;;;6.00;3.80;;;;;;;25.90;44.98;99804.45;116997;1187;22992;-63
2022/08/01 00:39:53;;;;;;;6.70;3.60;;;;;;;25.84;45.09;99804.77;116966;1184;21872;-64
2022/08/01 00:42:20;;;;;;;9.70;3.60;;;;;;;25.77;45.30;99801.90;116994;1184;24175;-58
2022/08/01 00:44:47;;;;;;;10.20;4.40;;;;;;;25.73;45.58;99796.88;117047;1186;23555;-58
2022/08/01 00:47:13;;;;;;;7.80;4.10;;;;;;;25.69;45.62;99791.48;117255;1182;22947;-58
2022/08/01 00:49:40;;;;;;;5.10;3.50;;;;;;;25.64;45.82;99788.10;117227;1183;23579;-58
2022/08/01 00:52:07;;;;;;;6.30;3.50;;;;;;;25.60;45.98;99784.53;117234;1184;23810;-58
2022/08/01 00:54:35;;;;;;;10.80;3.50;;;;;;;25.58;45.86;99780.55;117035;1184;23453;-63
2022/08/01 00:57:02;;;;;;;7.60;3.90;;;;;;;25.55;45.88;99779.57;117110;1185;22742;-58
2022/08/01 00:59:29;;;;;;;7.10;4.00;;;;;;;25.47;46.00;99773.00;117078;1186;23016;-58
2022/08/01 01:01:57;;;;;;;6.30;3.70;;;;;;;25.43;46.14;99769.55;116928;1184;21862;-63
2022/08/01 01:04:24;;;;;;;8.30;3.80;;;;;;;25.36;46.22;99764.55;117054;1187;21850;-58
2022/08/01 01:07:07;;;;;;;9.30;4.00;;;;;;;25.31;46.31;99765.34;117059;1187;22929;-63
2022/08/01 01:09:38;;;;;;;6.90;3.80;;;;;;;25.30;46.24;99766.15;116986;1181;21845;-58
2022/08/01 01:12:11;;;;;;;6.80;3.60;;;;;;;25.30;46.40;99765.84;117334;1182;22942;-58
2022/08/01 01:14:46;;;;;;;7.10;4.30;;;;;;;25.26;46.48;99768.30;117303;1182;22925;-57
2022/08/01 01:17:17;;;;;;;7.30;4.40;;;;;;;25.25;46.44;99767.84;117308;1178;22926;-58
2022/08/01 01:20:05;;;;;;;7.10;3.90;;;;;;;25.27;46.42;99770.16;117283;1184;22969;-63
2022/08/01 01:22:35;;;;;;;7.40;3.90;;;;;;;25.28;46.41;99773.17;117074;1184;21854;-63
2022/08/01 01:25:28;;;;;;;7.10;3.80;;;;;;;25.25;46.47;99776.60;117299;1182;22921;-57
2022/08/01 01:28:07;;;;;;;6.60;3.90;;;;;;;25.23;46.46;99773.91;117188;1186;24170;-57
2022/08/01 01:30:34;;;;;;;6.60;3.30;;;;;;;25.21;46.50;99773.87;117295;1176;23691;-58
2022/08/01 01:33:03;;;;;;;8.70;3.80;;;;;;;25.20;46.68;99773.61;117153;1182;23567;-58
2022/08/01 01:35:32;;;;;;;9.10;4.20;;;;;;;25.19;46.60;99776.73;117320;1183;22967;-64
2022/08/01 01:38:12;;;;;;;7.40;3.80;;;;;;;25.20;46.58;99780.40;117350;1182;23557;-64
2022/08/01 01:40:39;;;;;;;6.10;3.70;;;;;;;25.21;46.52;99781.25;117260;1185;22915;-58
2022/08/01 01:43:08;;;;;;;6.70;4.20;;;;;;;25.21;46.59;99780.39;117191;1184;23550;-58
2022/08/01 01:45:35;;;;;;;7.10;4.00;;;;;;;25.21;46.72;99779.30;117329;1184;21895;-58
2022/08/01 01:48:02;;;;;;;5.70;3.30;;;;;;;25.21;46.63;99782.00;117165;1182;23894;-58
2022/08/01 01:50:29;;;;;;;8.20;4.00;;;;;;;25.20;46.73;99785.63;117321;1185;22934;-58
2022/08/01 01:52:57;;;;;;;6.70;3.70;;;;;;;25.20;46.75;99793.58;117133;1185;22998;-63
2022/08/01 01:55:24;;;;;;;8.00;3.70;;;;;;;25.19;46.81;99795.59;117122;1182;23018;-64
2022/08/01 01:57:51;;;;;;;5.00;3.60;;;;;;;25.20;46.85;99799.14;117084;1185;23573;-64
2022/08/01 02:00:18;;;;;;;9.60;4.70;;;;;;;25.20;46.81;99802.55;117079;1180;22927;-66
2022/08/01 02:02:45;;;;;;;6.40;4.20;;;;;;;25.20;46.87;99804.11;117207;1183;23666;-64
2022/08/01 02:05:12;;;;;;;5.50;3.60;;;;;;;25.20;46.89;99805.73;117265;1182;21849;-63
2022/08/01 02:07:39;;;;;;;6.70;3.70;;;;;;;25.20;46.88;99811.14;117173;1182;22923;-63
2022/08/01 02:10:07;;;;;;;4.70;3.80;;;;;;;25.19;46.92;99812.11;117159;1183;23474;-58
2022/08/01 02:12:37;;;;;;;6.50;3.70;;;;;;;25.18;47.08;99813.61;117310;1186;22930;-64
2022/08/01 02:15:05;;;;;;;11.60;3.80;;;;;;;25.17;47.17;99818.06;116976;1187;21864;-58
2022/08/01 02:17:32;;;;;;;8.50;4.20;;;;;;;25.14;47.25;99820.78;116967;1184;21973;-63
2022/08/01 02:19:59;;;;;;;7.30;4.30;;;;;;;25.10;47.40;99820.00;116954;1186;21894;-58
2022/08/01 02:22:34;;;;;;;5.80;3.90;;;;;;;25.06;47.46;99814.30;117045;1184;22458;-64
2022/08/01 02:25:11;;;;;;;8.20;4.50;;;;;;;25.00;47.61;99809.76;117068;1185;23452;-65
2022/08/01 02:28:03;;;;;;;10.70;4.90;;;;;;;24.91;48.12;99807.77;117259;1186;22918;-65
2022/08/01 02:30:40;;;;;;;8.30;4.60;;;;;;;24.78;48.41;99804.88;117049;1183;23579;-66
2022/08/01 02:33:10;;;;;;;8.00;3.80;;;;;;;24.65;48.80;99805.13;117107;1186;21915;-65
2022/08/01 02:35:42;;;;;;;8.20;4.50;;;;;;;24.55;49.29;99813.33;117276;1186;21881;-66
2022/08/01 02:38:31;;;;;;;8.30;4.40;;;;;;;24.46;49.16;99820.86;117043;1188;21865;-65
2022/08/01 02:41:02;;;;;;;5.00;3.80;;;;;;;24.39;49.42;99827.10;117272;1183;23449;-56
2022/08/01 02:43:30;;;;;;;6.80;4.30;;;;;;;24.34;49.62;99835.36;117300;1185;21878;-57
2022/08/01 02:45:59;;;;;;;5.30;3.90;;;;;;;24.25;50.10;99843.45;117279;1185;22986;-57
2022/08/01 02:48:26;;;;;;;7.40;4.20;;;;;;;24.11;50.22;99839.71;117140;1181;24165;-57
2022/08/01 02:50:55;;;;;;;8.70;4.30;;;;;;;24.01;50.13;99832.60;116927;1183;23557;-56
2022/08/01 02:53:23;;;;;;;6.90;3.80;;;;;;;23.97;50.29;99824.27;117052;1188;21909;-56
2022/08/01 02:56:10;;;;;;;5.80;4.30;;;;;;;23.96;50.52;99823.77;117052;1182;22626;-66
2022/08/01 02:58:38;;;;;;;6.00;4.10;;;;;;;23.96;50.37;99828.46;117157;1187;22835;-57
2022/08/01 03:01:06;;;;;;;7.40;4.20;;;;;;;23.96;50.70;99827.60;116976;1189;22973;-57
2022/08/01 03:03:33;;;;;;;6.50;4.80;;;;;;;23.95;50.45;99823.00;117029;1187;21899;-66
2022/08/01 03:06:01;;;;;;;6.60;4.70;;;;;;;23.93;50.73;99814.18;116927;1184;23546;-65
2022/08/01 03:08:29;;;;;;;11.80;4.50;;;;;;;23.89;50.90;99807.25;117320;1183;21861;-66
2022/08/01 03:10:56;;;;;;;7.60;4.40;;;;;;;23.89;50.97;99803.37;117087;1185;24165;-56
2022/08/01 03:13:23;;;;;;;7.10;4.30;;;;;;;23.88;51.12;99802.20;116915;1187;23619;-56
2022/08/01 03:15:50;;;;;;;7.80;4.00;;;;;;;23.88;51.07;99803.65;117068;1185;21858;-66
2022/08/01 03:18:17;;;;;;;6.50;4.20;;;;;;;23.88;51.09;99797.71;117094;1184;22097;-66
2022/08/01 03:20:44;;;;;;;6.30;4.10;;;;;;;23.89;51.05;99795.09;116787;1184;22851;-64
2022/08/01 03:23:11;;;;;;;7.70;4.50;;;;;;;23.93;51.24;99784.77;116927;1187;22936;-57
2022/08/01 03:25:40;;;;;;;5.90;4.70;;;;;;;24.02;51.45;99772.84;116859;1189;23516;-57
2022/08/01 03:28:08;;;;;;;6.30;5.00;;;;;;;24.01;52.01;99763.63;117035;1186;24175;-58
2022/08/01 03:30:36;;;;;;;8.30;4.60;;;;;;;23.90;52.65;99754.39;116992;1186;21862;-69
2022/08/01 03:33:03;;;;;;;7.70;5.10;;;;;;;23.79;52.37;99753.63;116956;1184;23570;-58
2022/08/01 03:35:33;;;;;;;6.20;4.50;;;;;;;23.74;52.16;99756.67;117063;1183;23011;-68
2022/08/01 03:38:00;;;;;;;7.30;4.50;;;;;;;23.72;52.54;99758.08;117124;1182;23817;-68
2022/08/01 03:40:54;;;;;;;5.50;4.40;;;;;;;23.70;52.76;99759.17;116926;1186;23453;-68
2022/08/01 03:43:47;;;;;;;5.10;4.10;;;;;;;23.67;52.86;99757.08;117116;1185;24176;-57
2022/08/01 03:46:21;;;;;;;7.20;4.90;;;;;;;23.67;53.11;99747.05;117040;1182;22949;-57
2022/08/01 03:48:50;;;;;;;7.70;5.10;;;;;;;23.64;52.83;99733.77;116932;1187;22916;-58
2022/08/01 03:51:18;;;;;;;8.30;5.60;;;;;;;23.63;52.49;99737.70;116831;1186;21858;-71
2022/08/01 03:53:45;;;;;;;7.50;4.70;;;;;;;23.63;52.72;99738.17;116996;1183;23599;-69
2022/08/01 03:56:12;;;;;;;7.70;4.60;;;;;;;23.63;52.92;99741.42;116986;1183;22949;-69
2022/08/01 03:58:39;;;;;;;8.30;4.60;;;;;;;23.62;52.67;99752.22;117112;1185;23643;-69
2022/08/01 04:01:08;;;;;;;5.80;4.20;;;;;;;23.63;52.91;99751.30;117085;1185;23621;-69
2022/08/01 04:03:42;;;;;;;6.50;4.80;;;;;;;23.63;53.00;99753.76;117718;1183;23617;-59
2022/08/01 04:06:10;;;;;;;9.10;5.00;;;;;;;23.62;52.88;99754.40;119175;1183;21793;-59
2022/08/01 04:08:38;;;;;;;9.10;5.10;;;;;;;23.65;52.89;99754.67;118032;1182;21855;-58
2022/08/01 04:11:05;;;;;;;8.00;4.70;;;;;;;23.70;53.03;99754.10;119328;1185;21845;-69
2022/08/01 04:13:32;;;;;;;7.90;4.80;;;;;;;23.72;52.91;99739.77;119210;1186;22303;-59
2022/08/01 04:16:03;;;;;;;8.00;5.30;;;;;;;23.73;53.17;99736.66;117282;1187;23422;-58
2022/08/01 04:18:30;;;;;;;10.60;5.90;;;;;;;23.75;53.36;99729.23;117020;1186;23570;-58
2022/08/01 04:20:57;;;;;;;7.30;4.80;;;;;;;23.76;53.38;99720.72;117271;1182;22927;-58
2022/08/01 04:23:24;;;;;;;9.50;5.00;;;;;;;23.76;53.53;99711.22;116974;1188;21856;-68
2022/08/01 04:25:51;;;;;;;7.90;4.90;;;;;;;23.74;53.81;99708.34;116963;1188;21857;-58
2022/08/01 04:28:19;;;;;;;8.10;5.40;;;;;;;23.69;53.79;99709.63;116940;1189;21856;-68
2022/08/01 04:30:46;;;;;;;11.70;5.30;;;;;;;23.63;53.97;99705.47;118022;1184;24246;-57
2022/08/01 04:33:16;;;;;;;9.30;5.10;;;;;;;23.58;53.63;99701.36;119054;1186;21798;-58
2022/08/01 04:35:45;;;;;;;7.50;4.60;;;;;;;23.61;53.70;99692.14;118893;1188;22191;-58
2022/08/01 04:38:30;;;;;;;8.10;4.60;;;;;;;23.64;53.81;99688.00;119142;1185;21799;-63
2022/08/01 04:40:57;;;;;;;11.50;4.30;;;;;;;23.67;53.29;99685.05;119138;1186;21816;-67
2022/08/01 04:43:29;;;;;;;6.80;4.20;;;;;;;23.76;53.37;99677.02;117868;1185;23452;-58
2022/08/01 04:45:57;;;;;;;15.80;5.30;;;;;;;23.84;53.25;99680.13;116914;1184;23556;-58
2022/08/01 04:48:24;;;;;;;16.20;5.40;;;;;;;23.93;52.75;99679.31;117002;1186;21864;-67
2022/08/01 04:50:51;;;;;;;5.30;4.20;;;;;;;24.06;52.90;99678.27;116894;1186;22911;-56
2022/08/01 04:53:21;;;;;;;9.10;4.30;;;;;;;24.13;52.72;99675.07;117003;1184;21869;-57
2022/08/01 04:55:48;;;;;;;5.80;4.70;;;;;;;24.11;52.89;99678.27;117206;1182;21849;-56
2022/08/01 04:58:15;;;;;;;6.70;4.50;;;;;;;24.07;52.73;99683.20;117119;1185;22928;-57
2022/08/01 05:00:47;;;;;;;5.30;4.30;;;;;;;24.06;52.78;99685.92;117079;1187;22933;-56
2022/08/01 05:03:14;;;;;;;;;;;;;;;24.08;52.86;99690.64;117115;1187;21834;-64
2022/08/01 05:05:41;;;;;;;5.50;4.60;;;;;;;24.11;52.92;99695.41;117061;1183;24306;-64
2022/08/01 05:08:08;;;;;;;6.40;4.70;;;;;;;24.08;53.24;99698.20;117003;1184;22930;-59
2022/08/01 05:10:35;;;;;;;10.00;4.70;;;;;;;24.02;53.37;99706.20;117090;1185;24705;-56
2022/08/01 05:13:02;;;;;;;7.70;4.60;;;;;;;24.05;53.40;99711.83;116985;1187;23017;-64
2022/08/01 05:15:30;;;;;;;5.70;4.10;;;;;;;24.15;53.22;99714.49;117018;1184;24172;-56
2022/08/01 05:17:58;;;;;;;9.10;4.60;;;;;;;24.25;53.17;99719.46;116978;1184;21861;-64
2022/08/01 05:20:24;;;;;;;4.90;4.30;;;;;;;24.31;53.05;99716.08;117002;1185;22916;-63
2022/08/01 05:22:51;;;;;;;6.70;4.70;;;;;;;24.35;53.20;99714.10;117082;1185;23556;-64
2022/08/01 05:25:19;;;;;;;7.90;4.40;;;;;;;24.41;53.06;99712.61;117072;1184;22905;-63
2022/08/01 05:28:06;;;;;;;5.50;4.40;;;;;;;24.45;53.29;99710.12;117087;1186;22924;-63
2022/08/01 05:30:34;;;;;;;6.90;4.70;;;;;;;24.48;53.14;99715.61;117051;1187;23724;-63
2022/08/01 05:33:01;;;;;;;5.10;4.20;;;;;;;24.51;52.95;99721.63;117102;1188;24721;-63
2022/08/01 05:35:28;;;;;;;5.40;4.60;;;;;;;24.55;53.24;99728.36;117062;1182;23653;-63
2022/08/01 05:38:15;;;;;;;7.30;4.30;;;;;;;24.59;53.24;99732.65;116975;1187;21912;-55
2022/08/01 05:40:43;;;;;;;7.90;4.60;;;;;;;24.56;53.25;99733.61;116988;1187;21979;-56
2022/08/01 05:43:11;;;;;;;5.60;4.40;;;;;;;24.57;53.34;99729.01;117002;1187;22217;-56
2022/08/01 05:45:38;;;;;;;6.40;4.50;;;;;;;24.58;53.22;99733.06;117087;1187;23547;-63
2022/08/01 05:48:05;;;;;;;7.00;4.60;;;;;;;24.59;53.34;99734.99;117036;1187;22728;-56
2022/08/01 05:50:32;;;;;;;9.80;8.00;;;;;;;24.62;53.02;99740.27;117208;1187;23081;-56
2022/08/01 05:53:00;;;;;;;7.20;5.80;;;;;;;24.62;53.22;99743.31;117302;1181;24169;-57
2022/08/01 05:55:27;;;;;;;6.90;5.10;;;;;;;24.62;53.25;99753.05;117032;1187;21920;-62
2022/08/01 05:57:54;;;;;;;6.00;4.80;;;;;;;24.61;53.25;99759.21;117046;1184;22466;-56
2022/08/01 06:00:21;;;;;;;7.50;4.00;;;;;;;24.65;53.33;99761.04;117032;1185;22927;-56
2022/08/01 06:02:49;;;;;;;8.40;4.50;;;;;;;24.70;53.29;99767.64;117209;1186;24286;-62
2022/08/01 06:05:17;;;;;;;7.20;4.80;;;;;;;24.69;53.14;99771.65;117322;1186;22932;-62
2022/08/01 06:07:44;;;;;;;6.50;4.70;;;;;;;24.70;53.25;99776.66;117081;1187;24159;-61
2022/08/01 06:10:11;;;;;;;8.40;4.70;;;;;;;24.70;53.26;99784.20;117057;1186;21855;-56
2022/08/01 06:12:38;;;;;;;9.20;4.80;;;;;;;24.68;53.41;99790.39;117242;1186;21911;-56
2022/08/01 06:15:06;;;;;;;7.10;4.90;;;;;;;24.67;53.59;99797.46;117053;1184;23555;-56
2022/08/01 06:17:34;;;;;;;7.60;5.30;;;;;;;24.69;53.66;99799.32;117023;1187;21868;-63
2022/08/01 06:20:01;;;;;;;8.90;5.10;;;;;;;24.66;53.69;99803.13;117120;1188;23451;-67
2022/08/01 06:22:28;;;;;;;13.10;5.30;;;;;;;24.61;53.92;99805.13;117036;1186;24760;-66
2022/08/01 06:24:57;;;;;;;8.50;5.20;;;;;;;24.57;53.90;99810.69;117052;1187;21846;-58
2022/08/01 06:27:25;;;;;;;8.00;5.30;;;;;;;24.57;53.82;99815.31;117083;1187;24015;-67
2022/08/01 06:29:56;;;;;;;8.40;5.10;;;;;;;24.59;53.99;99814.63;117180;1185;22929;-67
2022/08/01 06:32:24;;;;;;;8.60;5.30;;;;;;;24.60;54.02;99812.23;117074;1187;22944;-58
2022/08/01 06:34:54;;;;;;;7.10;5.40;;;;;;;24.59;54.00;99814.95;117073;1188;22912;-66
2022/08/01 06:37:22;;;;;;;9.10;5.10;;;;;;;24.58;54.11;99820.81;117119;1188;21856;-67
2022/08/01 06:39:50;;;;;;;8.60;5.30;;;;;;;24.56;54.30;99819.54;117031;1187;21900;-58
2022/08/01 06:42:18;;;;;;;7.80;5.70;;;;;;;24.56;54.37;99820.82;117061;1186;23558;-58
2022/08/01 06:44:45;;;;;;;6.30;5.70;;;;;;;24.57;54.45;99827.17;117058;1187;22901;-66
2022/08/01 06:47:12;;;;;;;7.50;5.40;;;;;;;24.56;54.29;99855.34;117084;1187;23817;-63
2022/08/01 06:49:39;;;;;;;13.80;6.20;;;;;;;24.52;55.70;99874.15;117011;1182;23677;-63
2022/08/01 06:52:06;;;;;;;9.20;6.20;;;;;;;24.37;54.96;99858.30;117082;1186;22629;-57
2022/08/01 06:54:34;;;;;;;10.70;6.50;;;;;;;24.25;54.97;99847.40;117052;1186;23472;-57
2022/08/01 06:57:05;;;;;;;10.30;5.90;;;;;;;24.18;55.12;99835.17;117060;1187;23592;-64
2022/08/01 06:59:33;;;;;;;9.80;6.20;;;;;;;24.24;55.30;99828.81;117126;1185;23550;-64
2022/08/01 07:02:01;;;;;;;13.20;6.80;;;;;;;24.37;55.57;99841.63;117004;1187;24339;-57
2022/08/01 07:04:28;;;;;;;24.60;7.90;;;;;;;24.56;56.25;99844.27;117035;1187;21847;-66
2022/08/01 07:06:56;;;;;;;8.20;6.60;;;;;;;24.84;56.53;99829.64;117019;1190;21854;-66
2022/08/01 07:09:24;;;;;;;11.20;6.80;;;;;;;25.06;56.13;99811.55;117121;1187;22086;-57
2022/08/01 07:11:52;;;;;;;10.00;6.80;;;;;;;25.22;55.81;99806.29;117261;1186;21922;-66
2022/08/01 07:14:20;;;;;;;9.60;6.70;;;;;;;25.33;55.92;99807.96;117141;1188;23578;-66
2022/08/01 07:16:47;;;;;;;9.30;7.20;;;;;;;25.41;56.72;99806.56;117238;1182;23567;-66
2022/08/01 07:19:14;;;;;;;8.50;7.00;;;;;;;25.59;56.68;99799.53;117041;1187;22829;-67
2022/08/01 07:21:41;;;;;;;8.60;7.00;;;;;;;25.93;56.21;99798.41;117086;1186;21846;-57
2022/08/01 07:24:12;;;;;;;8.20;6.70;;;;;;;26.11;56.07;99801.23;116994;1188;22951;-56
2022/08/01 07:26:42;;;;;;;6.80;6.10;;;;;;;26.29;56.08;99796.06;117040;1187;21913;-56
2022/08/01 07:29:23;;;;;;;14.20;6.70;;;;;;;26.54;56.40;99786.73;117232;1186;21847;-55
2022/08/01 07:31:52;;;;;;;10.40;7.40;;;;;;;26.83;56.06;99785.38;117065;1187;21858;-56
2022/08/01 07:34:20;;;;;;;28.10;7.60;;;;;;;27.13;55.69;99787.23;117064;1187;21857;-62
2022/08/01 07:36:47;;;;;;;22.40;7.20;;;;;;;27.39;55.28;99784.14;116990;1184;23659;-62
2022/08/01 07:39:14;;;;;;;9.20;6.40;;;;;;;27.65;55.34;99775.44;117350;1186;21864;-62
2022/08/01 07:41:41;;;;;;;45.90;9.10;;;;;;;27.87;55.08;99777.88;117011;1183;22921;-57
2022/08/01 07:44:28;;;;;;;38.50;8.60;;;;;;;28.08;54.74;99776.80;117023;1188;21870;-58
2022/08/01 07:46:55;;;;;;;37.30;8.00;;;;;;;28.26;54.43;99772.23;117054;1184;23544;-58
2022/08/01 07:49:22;;;;;;;186.20;18.10;;;;;;;28.45;54.15;99767.16;117095;1187;21848;-61
2022/08/01 07:51:49;;;;;;;16.20;5.90;;;;;;;28.67;54.27;99770.30;117075;1187;22943;-58
2022/08/01 07:54:36;;;;;;;11.00;6.40;;;;;;;28.92;53.93;99768.02;117084;1185;21845;-62
2022/08/01 07:57:03;;;;;;;11.50;5.30;;;;;;;29.17;53.65;99769.33;117385;1186;24150;-56
2022/08/01 07:59:30;;;;;;;18.50;6.00;;;;;;;29.43;53.52;99764.73;117202;1181;21854;-60
2022/08/01 08:01:57;;;;;;;13.80;4.80;;;;;;;29.74;52.99;99761.98;117111;1182;21855;-57
2022/08/01 08:04:26;;;;;;;10.70;4.90;;;;;;;30.06;52.85;99762.82;117298;1186;22092;-57
2022/08/01 08:06:53;;;;;;;8.40;4.40;;;;;;;30.39;52.54;99761.22;117100;1185;22929;-57
2022/08/01 08:09:20;;;;;;;9.30;5.00;;;;;;;30.74;52.10;99767.99;117042;1185;23633;-57
2022/08/01 08:11:47;;;;;;;6.50;4.50;;;;;;;31.13;51.96;99763.73;117102;1188;21851;-57
2022/08/01 08:14:15;;;;;;;6.10;4.30;;;;;;;31.53;51.45;99769.67;117050;1187;21864;-58
2022/08/01 08:16:42;;;;;;;7.10;4.20;;;;;;;31.94;50.83;99767.80;117063;1183;24177;-61
2022/08/01 08:19:10;;;;;;;7.20;4.00;;;;;;;32.32;50.57;99763.81;117149;1182;22951;-61
2022/08/01 08:21:37;;;;;;;8.60;4.30;;;;;;;32.68;49.71;99762.44;117229;1183;21921;-61
2022/08/01 08:24:20;;;;;;;18.20;5.80;;;;;;;32.97;49.02;99763.78;117062;1182;24249;-61
2022/08/01 08:26:57;;;;;;;9.20;4.20;;;;;;;33.29;48.71;99767.30;116965;1183;22651;-58
2022/08/01 08:29:26;;;;;;;9.10;3.80;;;;;;;33.67;48.65;99761.20;117090;1188;21916;-61
2022/08/01 08:31:54;;;;;;;5.80;3.90;;;;;;;34.09;48.18;99758.45;117049;1187;23020;-61
2022/08/01 08:34:23;;;;;;;5.70;3.10;;;;;;;34.41;47.04;99755.21;117119;1188;21851;-58
2022/08/01 08:36:50;;;;;;;6.90;3.90;;;;;;;34.56;46.37;99756.09;117086;1188;21836;-61
2022/08/01 08:39:17;;;;;;;7.20;3.60;;;;;;;34.75;46.59;99760.34;117050;1182;23452;-58
2022/08/01 08:41:45;;;;;;;6.90;3.50;;;;;;;34.91;46.01;99761.30;117179;1188;22798;-58
2022/08/01 08:44:15;;;;;;;9.40;3.60;;;;;;;34.92;45.62;99760.98;117001;1189;22516;-62
2022/08/01 08:46:45;;;;;;;6.10;4.40;;;;;;;34.83;44.84;99763.34;117178;1183;21850;-57
2022/08/01 08:49:14;;;;;;;7.40;3.70;;;;;;;34.84;44.90;99765.91;117076;1191;21845;-57
2022/08/01 08:51:41;;;;;;;9.40;3.90;;;;;;;34.88;44.19;99765.35;117120;1185;23711;-62
2022/08/01 08:54:10;;;;;;;5.90;3.40;;;;;;;34.89;43.94;99768.48;117098;1187;23555;-58
2022/08/01 08:56:37;;;;;;;6.60;3.40;;;;;;;34.94;43.37;99769.16;117067;1187;23006;-58
2022/08/01 08:59:04;;;;;;;5.70;3.20;;;;;;;35.21;43.87;99763.95;117102;1182;23453;-58
2022/08/01 09:01:35;;;;;;;5.30;3.50;;;;;;;35.54;43.13;99755.05;117231;1186;22924;-58
2022/08/01 09:04:03;;;;;;;4.80;3.10;;;;;;;35.69;41.44;99754.51;116937;1182;22936;-57
2022/08/01 09:06:31;;;;;;;5.20;3.30;;;;;;;35.75;41.62;99757.02;118586;1186;21811;-62
2022/08/01 09:08:58;;;;;;;6.90;3.50;;;;;;;35.91;41.58;99756.09;119243;1184;21809;-58
2022/08/01 09:11:25;;;;;;;4.30;3.40;;;;;;;36.27;41.32;99755.67;117733;1186;21906;-62
2022/08/01 09:14:03;;;;;;;5.10;3.50;;;;;;;36.45;40.64;99756.02;118351;1187;21874;-58
2022/08/01 09:16:31;;;;;;;6.40;3.60;;;;;;;36.36;40.22;99761.46;118982;1186;21914;-62
2022/08/01 09:19:12;;;;;;;4.80;3.50;;;;;;;36.07;39.92;99764.33;117185;1182;22396;-62
2022/08/01 09:21:59;;;;;;;8.30;3.70;;;;;;;35.77;39.91;99765.16;118050;1186;21989;-63
2022/08/01 09:24:27;;;;;;;14.10;4.00;;;;;;;35.45;39.38;99759.25;117158;1180;22927;-57
2022/08/01 09:26:56;;;;;;;;;;;;;;;35.32;40.49;99756.95;117111;1187;22930;-58
2022/08/01 09:29:29;;;;;;;10.80;3.50;;;;;;;35.37;40.68;99754.13;117045;1188;22232;-64
2022/08/01 09:32:06;;;;;;;7.00;3.80;;;;;;;35.25;40.17;99749.39;117321;1187;23565;-63
2022/08/01 09:34:39;;;;;;;7.40;5.00;;;;;;;35.09;40.58;99754.72;117324;1186;21867;-63
2022/08/01 09:37:08;;;;;;;4.80;3.30;;;;;;;35.01;40.73;99758.84;117337;1186;21855;-58
2022/08/01 09:39:42;;;;;;;7.80;3.90;;;;;;;34.96;41.00;99766.52;117234;1186;23001;-58
2022/08/01 09:42:22;;;;;;;13.00;8.70;;;;;;;34.92;40.39;99769.48;117237;1186;23449;-58
2022/08/01 09:44:55;;;;;;;7.10;5.10;;;;;;;34.71;40.08;99763.23;117272;1186;22901;-64
2022/08/01 09:47:22;;;;;;;6.80;3.80;;;;;;;34.49;40.57;99761.91;117342;1186;21908;-62
2022/08/01 09:49:55;;;;;;;6.30;3.70;;;;;;;34.42;40.58;99760.46;117026;1186;22927;-63
2022/08/01 09:52:26;;;;;;;5.60;3.80;;;;;;;34.32;40.75;99767.84;117247;1185;24013;-59
2022/08/01 09:55:03;;;;;;;9.70;6.00;;;;;;;34.22;40.52;99770.36;117239;1183;21855;-59
2022/08/01 09:57:30;;;;;;;7.00;4.60;;;;;;;34.01;40.32;99771.58;117256;1186;21851;-59
2022/08/01 09:59:59;;;;;;;29.50;19.40;;;;;;;33.85;40.57;99770.92;117275;1186;21863;-59
2022/08/01 10:02:39;;;;;;;8.60;5.20;;;;;;;33.71;39.84;99772.40;117192;1186;24162;-59
2022/08/01 10:05:09;;;;;;;6.30;3.90;;;;;;;33.44;39.73;99773.10;117204;1186;21852;-63
2022/08/01 10:07:54;;;;;;;5.40;3.10;;;;;;;33.24;39.85;99766.22;117270;1186;21906;-59
2022/08/01 10:10:23;;;;;;;5.60;3.10;;;;;;;33.17;39.70;99766.89;117087;1187;21848;-63
2022/08/01 10:12:58;;;;;;;6.60;3.20;;;;;;;33.17;40.00;99766.79;117174;1186;21848;-63
2022/08/01 10:15:26;;;;;;;5.10;3.30;;;;;;;33.18;40.11;99767.58;117239;1187;23055;-63
2022/08/01 10:18:05;;;;;;;6.30;3.10;;;;;;;33.19;39.45;99767.63;117224;1185;21855;-64
2022/08/01 10:20:52;;;;;;;4.70;2.90;;;;;;;33.13;39.80;99766.92;117236;1186;23462;-59
2022/08/01 10:23:22;;;;;;;5.90;2.80;;;;;;;33.02;39.55;99762.16;117158;1185;22751;-59
2022/08/01 10:26:07;;;;;;;5.00;3.50;;;;;;;32.94;39.66;99764.73;117156;1185;22901;-59
2022/08/01 10:47:05;;;;;;;5.00;2.90;;;;;;;33.09;40.03;99781.61;118447;1184;21889;-91
2022/08/01 10:50:04;;;;;;;4.80;2.80;;;;;;;33.21;40.23;99779.40;117996;1187;23567;-90
2022/08/01 13:51:10;;;;;;;7.50;4.10;;;;;;;34.34;33.49;99756.86;117363;1179;21857;-60
2022/08/01 13:53:48;;;;;;;5.20;4.10;;;;;;;34.18;33.71;99761.02;117061;1187;23448;-63
2022/08/01 13:56:17;;;;;;;33.00;21.60;;;;;;;34.01;33.68;99759.87;117242;1187;23554;-59
2022/08/01 13:58:44;;;;;;;14.40;10.80;;;;;;;33.87;33.37;99759.35;117125;1187;22924;-63
2022/08/01 14:01:11;;;;;;;6.30;5.00;;;;;;;33.63;33.40;99760.39;117116;1187;22634;-60
2022/08/01 14:03:38;;;;;;;8.50;4.80;;;;;;;33.20;33.80;99762.44;117177;1188;21891;-63
2022/08/01 14:06:06;;;;;;;8.20;4.00;;;;;;;32.78;34.40;99758.56;117044;1184;23548;-59
2022/08/01 14:08:33;;;;;;;8.10;3.10;;;;;;;32.45;34.79;99757.03;117121;1188;21862;-59
2022/08/01 14:11:00;;;;;;;5.80;3.40;;;;;;;32.18;35.20;99750.52;117093;1188;24192;-63
2022/08/01 14:13:27;;;;;;;6.20;3.40;;;;;;;31.88;35.71;99749.09;117075;1188;22299;-60
2022/08/01 14:16:03;;;;;;;5.90;3.20;;;;;;;31.61;36.03;99745.17;117133;1190;21863;-63
2022/08/01 14:18:30;;;;;;;4.80;3.20;;;;;;;31.40;36.28;99739.14;117181;1185;23659;-63
2022/08/01 14:20:57;;;;;;;6.30;4.30;;;;;;;31.20;36.57;99735.26;117105;1188;22629;-59
2022/08/01 14:23:31;;;;;;;4.80;3.40;;;;;;;31.02;37.65;99736.38;117120;1186;22924;-59
2022/08/01 14:25:58;;;;;;;7.40;3.60;;;;;;;30.87;37.84;99739.89;117041;1185;24150;-63
2022/08/01 14:28:34;;;;;;;7.10;4.00;;;;;;;30.64;37.83;99739.83;117099;1187;24332;-63
2022/08/01 14:31:01;;;;;;;6.30;3.40;;;;;;;30.46;38.12;99742.35;117112;1187;23557;-59
2022/08/01 14:33:28;;;;;;;7.60;3.50;;;;;;;30.32;38.28;99742.02;117068;1187;21861;-59
2022/08/01 14:35:55;;;;;;;7.30;3.50;;;;;;;30.18;38.59;99738.61;117134;1188;22752;-59
2022/08/01 14:38:42;;;;;;;10.90;3.50;;;;;;;30.07;39.18;99737.73;117085;1184;22660;-63
2022/08/01 14:41:13;;;;;;;11.10;3.60;;;;;;;29.99;39.69;99736.41;117227;1187;22725;-63
2022/08/01 14:43:40;;;;;;;5.80;3.60;;;;;;;29.95;39.54;99737.55;117180;1188;21885;-63
2022/08/01 14:46:09;;;;;;;6.50;4.00;;;;;;;29.86;39.34;99743.21;117041;1188;23576;-59
2022/08/01 14:48:36;;;;;;;4.80;3.60;;;;;;;29.76;39.37;99754.58;117136;1187;23573;-61
2022/08/01 14:51:04;;;;;;;5.10;3.70;;;;;;;29.66;39.55;99757.94;116892;1188;23559;-59
2022/08/01 14:53:32;;;;;;;6.80;4.10;;;;;;;29.56;39.55;99759.62;117146;1189;21865;-63